Time;durP1;ratioP1;P1;durP2;ratioP2;P2;SDS_P1;SDS_P2;PMS_P1;PMS_P2;Temp;Humidity;BMP_temperature;BMP_pressure;BME280_temperature;BME280_humidity;BME280_pressure;Samples;Min_cycle;Max_cycle;Signal;HPM_P1;HPM_P2
2024/01/05 05:39:09;;;;;;;2.83;1.00;;;;;;;-0.92;100.00;99992.66;6348279;22;20041;-89
2024/01/05 05:43:36;;;;;;;1.63;0.98;;;;;;;-1.02;100.00;99995.94;6271043;22;20086;-91
2024/01/05 05:48:04;;;;;;;1.37;1.00;;;;;;;-0.99;100.00;99998.59;6254148;22;20019;-91
2024/01/05 05:51:15;;;;;;;1.50;0.93;;;;;;;-1.07;100.00;99990.69;6171861;23;1371023;-90
2024/01/05 05:53:42;;;;;;;2.43;1.23;;;;;;;-1.01;100.00;99984.72;6216048;23;20542;-91
2024/01/05 05:56:09;;;;;;;1.50;1.00;;;;;;;-1.08;100.00;99983.78;6190515;23;20073;-90
2024/01/05 05:58:39;;;;;;;1.43;0.90;;;;;;;-0.96;100.00;99983.09;6216859;23;20099;-91
2024/01/05 06:01:06;;;;;;;1.30;0.80;;;;;;;-1.04;100.00;99984.69;6191795;23;20055;-91
2024/01/05 06:03:33;;;;;;;2.43;1.00;;;;;;;-1.13;100.00;99988.00;6191267;23;20533;-91
2024/01/05 06:06:01;;;;;;;1.73;1.13;;;;;;;-0.94;100.00;99973.59;6191038;23;20016;-92
2024/01/05 06:08:28;;;;;;;1.10;0.90;;;;;;;-1.14;100.00;99984.53;6167764;23;20406;-92
2024/01/05 06:10:55;;;;;;;1.20;1.00;;;;;;;-1.04;100.00;99972.59;6167802;23;20054;-92
2024/01/05 06:13:22;;;;;;;1.77;1.10;;;;;;;-1.03;98.58;99981.25;6192196;23;20475;-90
2024/01/05 06:15:49;;;;;;;2.23;1.23;;;;;;;-1.07;98.83;99980.34;6216844;23;20050;-91
2024/01/05 06:18:17;;;;;;;1.70;0.90;;;;;;;-1.14;100.00;99978.50;6167873;23;20027;-91
2024/01/05 06:20:44;;;;;;;1.30;1.03;;;;;;;-1.05;100.00;99982.94;6249119;22;20019;-90
2024/01/05 06:23:11;;;;;;;2.33;1.20;;;;;;;-1.14;100.00;99973.31;6225200;22;20065;-90
2024/01/05 06:25:42;;;;;;;2.27;1.27;;;;;;;-1.00;100.00;99977.00;6251789;22;20443;-91
2024/01/05 06:28:10;;;;;;;2.67;1.10;;;;;;;-1.16;100.00;99988.84;6223733;22;20019;-91
2024/01/05 06:30:37;;;;;;;4.13;1.07;;;;;;;-1.26;100.00;99988.66;6273524;22;20019;-91
2024/01/05 06:33:06;;;;;;;1.27;1.00;;;;;;;-1.09;100.00;99997.59;6248475;22;20023;-91
2024/01/05 06:35:34;;;;;;;1.83;1.20;;;;;;;-1.04;100.00;99997.66;6222945;22;20015;-91
2024/01/05 06:38:01;;;;;;;3.97;1.27;;;;;;;-1.12;100.00;100007.91;6222752;22;20030;-90
2024/01/05 06:40:28;;;;;;;4.23;1.37;;;;;;;-1.11;100.00;100012.22;6248790;22;20297;-89
2024/01/05 06:42:57;;;;;;;2.43;1.40;;;;;;;-1.19;100.00;100021.59;6248298;22;20026;-91
2024/01/05 06:45:24;;;;;;;1.70;1.00;;;;;;;-1.13;100.00;100012.22;6247810;22;20107;-90
2024/01/05 06:47:52;;;;;;;2.53;1.10;;;;;;;-1.04;100.00;100019.25;6273149;22;20024;-89
2024/01/05 06:50:19;;;;;;;2.57;1.40;;;;;;;-1.13;96.63;100017.38;6248038;22;20385;-89
2024/01/05 06:52:47;;;;;;;1.57;1.10;;;;;;;-0.95;97.38;100021.13;6248259;22;20020;-91
2024/01/05 06:55:15;;;;;;;1.53;1.10;;;;;;;-0.94;97.28;100015.94;6248458;22;20026;-91
2024/01/05 06:57:42;;;;;;;2.03;1.20;;;;;;;-1.05;97.15;100027.88;6249070;22;20031;-93
2024/01/05 07:00:10;;;;;;;2.33;1.10;;;;;;;-1.09;97.45;100023.50;6250875;22;20019;-93
2024/01/05 07:02:38;;;;;;;1.53;1.40;;;;;;;-0.97;98.38;100028.88;6229286;22;20035;-94
2024/01/05 07:05:06;;;;;;;3.97;2.43;;;;;;;-1.05;100.00;100029.59;6228616;22;20027;-94
2024/01/05 07:07:33;;;;;;;5.67;3.77;;;;;;;-0.91;100.00;100028.13;6302213;22;20397;-94
2024/01/05 07:10:00;;;;;;;2.57;1.90;;;;;;;-0.97;100.00;100018.50;6250504;22;20024;-93
2024/01/05 07:12:28;;;;;;;4.50;3.20;;;;;;;-0.90;100.00;100022.06;6250229;22;20023;-92
2024/01/05 07:14:55;;;;;;;2.50;1.40;;;;;;;-0.83;100.00;100026.50;6249558;22;20023;-92
2024/01/05 07:17:22;;;;;;;1.90;1.00;;;;;;;-0.92;100.00;100014.28;6248418;22;20026;-93
2024/01/05 07:19:50;;;;;;;2.57;1.90;;;;;;;-0.92;100.00;100016.88;6249865;22;20508;-94
2024/01/05 07:22:17;;;;;;;1.67;1.07;;;;;;;-0.92;100.00;100016.00;6225661;22;20050;-92
2024/01/05 07:24:47;;;;;;;2.20;1.43;;;;;;;-1.04;98.40;100008.88;6247318;22;20040;-91
2024/01/05 07:27:16;;;;;;;2.53;2.33;;;;;;;-0.97;98.33;100013.31;6272589;22;20016;-92
2024/01/05 07:29:44;;;;;;;1.83;1.20;;;;;;;-1.14;98.13;100018.25;6223659;22;20030;-92
2024/01/05 07:32:11;;;;;;;2.40;1.37;;;;;;;-1.10;100.00;100011.38;6272974;22;20054;-90
2024/01/05 07:34:38;;;;;;;2.37;1.37;;;;;;;-1.05;100.00;100012.34;6270469;22;20027;-92
2024/01/05 07:37:05;;;;;;;1.90;1.17;;;;;;;-1.07;100.00;100015.75;6271482;22;20031;-91
2024/01/05 07:39:32;;;;;;;2.00;1.57;;;;;;;-1.03;100.00;100008.03;6222082;22;20030;-91
2024/01/05 07:42:02;;;;;;;1.57;1.10;;;;;;;-1.06;100.00;100015.78;6247431;22;20371;-90
2024/01/05 07:44:30;;;;;;;1.40;1.03;;;;;;;-1.07;100.00;100015.75;6272320;22;20020;-88
2024/01/05 07:46:57;;;;;;;1.93;0.80;;;;;;;-1.15;100.00;100021.69;6247547;22;20442;-91
2024/01/05 07:49:25;;;;;;;1.53;1.23;;;;;;;-1.00;100.00;100025.38;6272615;22;20103;-90
2024/01/05 07:51:53;;;;;;;1.77;1.20;;;;;;;-1.13;100.00;100019.13;6247618;22;20031;-91
2024/01/05 07:54:20;;;;;;;1.70;1.23;;;;;;;-0.94;100.00;100028.91;6248991;22;20069;-91
2024/01/05 07:56:47;;;;;;;3.47;1.10;;;;;;;-1.03;100.00;100027.91;6274148;22;20034;-90
2024/01/05 07:59:15;;;;;;;1.93;1.10;;;;;;;-0.98;100.00;100023.69;6273991;22;20024;-90
2024/01/05 08:01:43;;;;;;;1.70;1.03;;;;;;;-1.04;100.00;100020.97;6249845;22;20521;-90
2024/01/05 08:04:11;;;;;;;10.57;8.20;;;;;;;-1.06;100.00;100018.38;6277819;22;20043;-92
2024/01/05 08:06:38;;;;;;;3.23;1.77;;;;;;;-1.11;100.00;100013.94;6279265;22;20036;-93
2024/01/05 08:09:05;;;;;;;2.33;1.43;;;;;;;-1.11;100.00;100021.72;6254800;22;20027;-93
2024/01/05 08:11:33;;;;;;;2.80;1.70;;;;;;;-1.14;100.00;100022.56;6252355;22;20030;-92
2024/01/05 08:14:00;;;;;;;3.30;1.40;;;;;;;-1.14;100.00;100022.56;6251617;22;20043;-91
2024/01/05 08:16:27;;;;;;;2.83;1.63;;;;;;;-1.07;100.00;100013.16;6248716;22;20339;-90
2024/01/05 08:18:54;;;;;;;2.57;1.27;;;;;;;-1.07;100.00;100018.34;6248304;22;20019;-90
2024/01/05 08:21:21;;;;;;;1.33;1.00;;;;;;;-1.18;100.00;100029.41;6249154;22;20070;-91
2024/01/05 08:23:49;;;;;;;2.10;1.07;;;;;;;-1.37;100.00;100024.75;6223958;22;20069;-91
2024/01/05 08:26:17;;;;;;;2.13;1.40;;;;;;;-1.14;100.00;100025.16;6249644;22;20016;-91
2024/01/05 08:28:45;;;;;;;3.27;1.57;;;;;;;-1.10;100.00;100021.75;6249408;22;20069;-90
2024/01/05 08:31:12;;;;;;;2.23;1.43;;;;;;;-1.06;100.00;100017.50;6199957;22;20043;-91
2024/01/05 08:33:40;;;;;;;1.80;1.23;;;;;;;-1.10;100.00;100028.66;6249239;22;20095;-91
2024/01/05 08:36:07;;;;;;;3.10;1.60;;;;;;;-1.25;100.00;100027.56;6275209;22;20020;-91
2024/01/05 08:38:35;;;;;;;2.60;1.47;;;;;;;-1.34;100.00;100024.81;6274509;22;20023;-91
2024/01/05 08:41:04;;;;;;;1.87;1.20;;;;;;;-1.36;100.00;100020.44;6274734;22;20298;-91
2024/01/05 08:43:32;;;;;;;5.80;4.13;;;;;;;-1.22;100.00;100026.75;6249580;22;20023;-90
2024/01/05 08:46:02;;;;;;;3.97;2.07;;;;;;;-1.19;100.00;100034.56;6249825;22;20027;-91
2024/01/05 08:48:30;;;;;;;9.03;5.60;;;;;;;-1.11;100.00;100037.28;6274061;22;20070;-91
2024/01/05 08:50:57;;;;;;;3.57;2.60;;;;;;;-1.12;100.00;100036.41;6274548;22;20358;-91
2024/01/05 08:53:24;;;;;;;3.37;2.03;;;;;;;-1.07;100.00;100036.50;6256722;22;20050;-90
2024/01/05 08:55:51;;;;;;;3.17;2.00;;;;;;;-1.13;100.00;100032.06;6223030;22;20015;-89
2024/01/05 08:58:18;;;;;;;3.93;1.97;;;;;;;-1.08;100.00;100052.91;6275186;22;20024;-90
2024/01/05 09:00:45;;;;;;;5.30;2.10;;;;;;;-1.10;100.00;100031.25;6223258;22;20024;-90
2024/01/05 09:03:13;;;;;;;5.50;3.83;;;;;;;-1.03;100.00;100031.38;6273359;22;20023;-90
2024/01/05 09:05:41;;;;;;;9.63;5.47;;;;;;;-1.04;100.00;100023.56;6248420;22;20023;-90
2024/01/05 09:08:08;;;;;;;5.00;3.20;;;;;;;-1.17;100.00;100015.59;6223183;22;20102;-90
2024/01/05 09:10:35;;;;;;;5.23;3.70;;;;;;;-1.13;100.00;100009.63;6248664;22;20081;-90
2024/01/05 09:13:03;;;;;;;4.87;2.23;;;;;;;-1.05;100.00;100003.69;6275332;22;20019;-91
2024/01/05 09:15:30;;;;;;;4.13;2.60;;;;;;;-0.89;100.00;100006.53;6248891;22;20051;-91
2024/01/05 09:17:58;;;;;;;5.67;2.80;;;;;;;-0.94;100.00;100007.31;6248983;22;20036;-92
2024/01/05 09:20:25;;;;;;;4.00;2.07;;;;;;;-0.94;100.00;100013.34;6273808;22;20048;-91
2024/01/05 09:22:52;;;;;;;4.23;2.40;;;;;;;-0.86;100.00;100021.25;6199161;22;20023;-90
2024/01/05 09:25:19;;;;;;;3.30;2.10;;;;;;;-0.79;100.00;100006.66;6223455;22;20019;-92
2024/01/05 09:27:47;;;;;;;5.43;2.57;;;;;;;-0.83;100.00;100013.53;6274295;22;20038;-91
2024/01/05 09:30:14;;;;;;;5.23;2.70;;;;;;;-0.65;100.00;100003.44;6223853;22;20030;-92
2024/01/05 09:32:41;;;;;;;5.27;2.60;;;;;;;-0.67;100.00;100006.88;6248748;22;20478;-90
2024/01/05 09:35:08;;;;;;;7.03;2.73;;;;;;;-0.66;100.00;100004.28;6223432;22;20032;-89
2024/01/05 09:37:36;;;;;;;4.60;2.70;;;;;;;-0.62;100.00;100024.22;6273400;22;20015;-91
2024/01/05 09:40:04;;;;;;;4.13;2.67;;;;;;;-0.67;100.00;100018.09;6198098;22;20027;-91
2024/01/05 09:42:31;;;;;;;4.53;2.60;;;;;;;-0.62;100.00;100011.25;6248706;22;20036;-90
2024/01/05 09:45:00;;;;;;;4.93;2.67;;;;;;;-0.68;100.00;100018.06;6248555;22;20047;-90
2024/01/05 09:47:27;;;;;;;4.27;2.47;;;;;;;-0.68;100.00;100016.34;6275335;22;20031;-90
2024/01/05 09:49:56;;;;;;;7.33;3.57;;;;;;;-0.66;100.00;100001.69;6275395;22;20024;-91
2024/01/05 09:52:23;;;;;;;4.00;2.60;;;;;;;-0.70;100.00;100006.81;6254247;22;20042;-88
2024/01/05 09:54:51;;;;;;;5.63;2.80;;;;;;;-0.69;100.00;100008.53;6249095;22;20039;-89
2024/01/05 09:57:19;;;;;;;5.07;3.03;;;;;;;-0.60;100.00;99998.28;6274161;22;20510;-89
2024/01/05 09:59:47;;;;;;;5.97;2.97;;;;;;;-0.53;100.00;100001.84;6247391;22;20079;-88
2024/01/05 10:02:30;;;;;;;6.17;2.73;;;;;;;-0.78;100.00;100006.69;6271874;22;20099;-89
2024/01/05 10:04:57;;;;;;;6.47;3.20;;;;;;;-0.77;100.00;99997.19;6246926;22;20019;-91
2024/01/05 10:07:24;;;;;;;5.37;2.70;;;;;;;-0.71;100.00;99987.78;6222005;22;20241;-89
2024/01/05 10:09:55;;;;;;;7.17;3.27;;;;;;;-0.57;100.00;99983.66;6272686;22;20469;-89
2024/01/05 10:12:24;;;;;;;6.00;2.93;;;;;;;-0.51;100.00;99974.19;6222804;22;20030;-89
2024/01/05 10:15:03;;;;;;;5.07;2.83;;;;;;;-0.49;100.00;99980.28;6221537;22;20030;-89
2024/01/05 10:17:30;;;;;;;5.93;3.27;;;;;;;-0.52;100.00;99980.25;6223731;22;20023;-90
2024/01/05 10:20:16;;;;;;;5.30;2.80;;;;;;;-0.39;100.00;99979.56;6256375;22;20077;-89
2024/01/05 10:22:46;;;;;;;8.57;3.23;;;;;;;-0.45;100.00;99977.75;6197830;22;20520;-89
2024/01/05 10:25:21;;;;;;;6.93;3.60;;;;;;;-0.48;100.00;99988.09;6221166;22;20097;-89
2024/01/05 10:27:51;;;;;;;5.80;3.30;;;;;;;-0.54;100.00;99989.72;6223156;22;20069;-89
2024/01/05 10:30:27;;;;;;;5.83;3.33;;;;;;;-0.48;100.00;99982.03;6246859;22;20020;-89
2024/01/05 10:33:05;;;;;;;6.03;2.73;;;;;;;-0.56;100.00;99968.97;6247370;22;20019;-90
2024/01/05 10:35:34;;;;;;;6.00;4.57;;;;;;;-0.57;100.00;99977.59;6246388;22;20027;-90
2024/01/05 11:34:23;;;;;;;8.00;3.77;;;;;;;-0.56;100.00;99885.94;6125707;23;20065;-92
2024/01/05 12:11:27;;;;;;;7.30;4.20;;;;;;;-0.48;100.00;99839.31;6065664;23;20377;-91
2024/01/05 12:14:00;;;;;;;18.10;11.63;;;;;;;-0.43;100.00;99822.06;6065369;23;20452;-92
2024/01/05 12:16:28;;;;;;;11.10;7.03;;;;;;;-0.46;100.00;99829.84;6065297;23;20019;-92
2024/01/05 12:18:55;;;;;;;9.93;5.93;;;;;;;-0.43;100.00;99824.66;6041916;23;20691;-92
2024/01/05 12:21:23;;;;;;;9.50;6.13;;;;;;;-0.41;100.00;99813.47;6041550;23;20023;-91
2024/01/05 12:23:55;;;;;;;8.57;5.70;;;;;;;-0.36;100.00;99821.28;6065312;23;20027;-91
2024/01/05 12:26:24;;;;;;;12.15;9.02;;;;;;;-0.36;100.00;99829.06;6066125;23;20071;-91
2024/01/05 12:28:52;;;;;;;6.77;4.43;;;;;;;-0.39;100.00;99837.69;6018374;23;20102;-91
2024/01/05 12:31:19;;;;;;;8.40;4.27;;;;;;;-0.42;100.00;99832.50;6065884;23;20115;-91
2024/01/05 12:33:47;;;;;;;9.10;4.80;;;;;;;-0.41;100.00;99836.81;6020081;23;20415;-91
2024/01/05 12:36:26;;;;;;;7.27;3.90;;;;;;;-0.38;100.00;99842.03;6066620;23;20031;-90
2024/01/05 12:38:53;;;;;;;6.07;3.93;;;;;;;-0.42;100.00;99840.28;6043566;23;20197;-92
2024/01/05 12:41:21;;;;;;;9.80;4.70;;;;;;;-0.43;100.00;99819.47;6067936;23;20069;-92
2024/01/05 12:43:50;;;;;;;7.43;3.80;;;;;;;-0.41;100.00;99810.88;6100716;23;20025;-92
2024/01/05 12:46:19;;;;;;;7.03;4.13;;;;;;;-0.34;100.00;99814.38;6155958;23;20021;-91
2024/01/05 12:48:47;;;;;;;6.40;3.70;;;;;;;-0.38;100.00;99803.09;6170760;23;20025;-92
2024/01/05 12:51:19;;;;;;;7.80;4.30;;;;;;;-0.41;100.00;99797.03;6144124;23;20037;-92
2024/01/05 12:53:57;;;;;;;6.23;3.93;;;;;;;-0.41;100.00;99797.91;6107101;23;20544;-92
2024/01/05 12:56:24;;;;;;;7.90;4.20;;;;;;;-0.40;100.00;99784.06;6131420;23;20059;-91
2024/01/05 12:58:52;;;;;;;6.93;3.80;;;;;;;-0.36;100.00;99782.34;6130824;23;20080;-91
2024/01/05 13:01:23;;;;;;;5.80;3.53;;;;;;;-0.38;100.00;99787.53;6154792;23;20025;-90
2024/01/05 13:03:52;;;;;;;5.30;3.80;;;;;;;-0.38;100.00;99778.88;6106140;23;20021;-91
2024/01/05 13:06:22;;;;;;;6.13;3.57;;;;;;;-0.31;100.00;99778.94;6106814;23;20411;-91
2024/01/05 13:08:50;;;;;;;5.43;3.30;;;;;;;-0.29;100.00;99778.97;6154967;23;20033;-93
2024/01/05 13:11:20;;;;;;;7.77;3.30;;;;;;;-0.43;100.00;99788.34;6131052;23;20021;-92
2024/01/05 13:13:52;;;;;;;3.73;3.07;;;;;;;-0.37;100.00;99791.88;6154280;23;20154;-92
2024/01/05 13:16:20;;;;;;;6.97;4.10;;;;;;;-0.47;100.00;99778.78;6155799;23;20025;-91
2024/01/05 13:18:47;;;;;;;4.87;3.20;;;;;;;-0.49;100.00;99785.69;6130772;23;20021;-91
2024/01/05 13:21:15;;;;;;;5.63;3.80;;;;;;;-0.46;100.00;99791.78;6156368;23;20104;-92
2024/01/05 13:23:43;;;;;;;6.03;3.40;;;;;;;-0.48;100.00;99792.63;6105720;23;20021;-93
2024/01/05 13:26:11;;;;;;;5.83;3.50;;;;;;;-0.46;100.00;99796.09;6178983;23;20025;-91
2024/01/05 13:28:40;;;;;;;5.23;3.27;;;;;;;-0.56;100.00;99795.13;6178595;23;20429;-92
2024/01/05 13:31:08;;;;;;;6.07;3.30;;;;;;;-0.57;100.00;99793.41;6129719;23;20465;-91
2024/01/05 13:33:36;;;;;;;5.53;3.60;;;;;;;-0.60;100.00;99807.19;6130054;23;20025;-91
2024/01/05 13:36:05;;;;;;;5.73;3.10;;;;;;;-0.54;100.00;99800.34;6129316;23;20068;-93
2024/01/05 13:38:33;;;;;;;5.13;3.10;;;;;;;-0.53;100.00;99810.72;6154032;23;20516;-92
2024/01/05 13:41:00;;;;;;;4.77;3.70;;;;;;;-0.76;100.00;99802.69;6153712;23;20489;-92
2024/01/05 13:43:27;;;;;;;6.53;3.53;;;;;;;-0.76;100.00;99797.50;6155515;23;20084;-92
2024/01/05 13:45:54;;;;;;;4.87;3.10;;;;;;;-0.64;100.00;99807.16;6129935;23;20052;-92
2024/01/05 13:48:22;;;;;;;5.37;3.00;;;;;;;-0.61;100.00;99804.59;6129084;23;20018;-91
2024/01/05 13:50:50;;;;;;;4.57;3.50;;;;;;;-0.57;100.00;99793.41;6128792;23;20453;-91
2024/01/05 13:53:18;;;;;;;4.20;2.77;;;;;;;-0.59;100.00;99797.69;6129681;23;20032;-93
2024/01/05 13:55:45;;;;;;;5.47;2.80;;;;;;;-0.66;100.00;99783.81;6130030;23;20036;-93
2024/01/05 13:58:13;;;;;;;4.77;3.20;;;;;;;-0.93;100.00;99791.25;6129214;23;20010;-93
2024/01/05 14:00:41;;;;;;;6.00;3.00;;;;;;;-0.82;100.00;99800.03;6178247;23;20021;-92
2024/01/05 14:03:09;;;;;;;5.77;2.90;;;;;;;-0.74;100.00;99787.16;6128799;23;20341;-92
2024/01/05 14:05:37;;;;;;;6.97;3.63;;;;;;;-0.74;100.00;99785.44;6177863;23;20029;-91
2024/01/05 14:08:06;;;;;;;6.10;3.17;;;;;;;-0.80;100.00;99784.50;6105566;23;20044;-93
2024/01/05 14:10:33;;;;;;;5.30;3.00;;;;;;;-0.85;100.00;99785.31;6129242;23;20021;-93
2024/01/05 14:13:01;;;;;;;5.10;3.03;;;;;;;-0.84;100.00;99801.75;6105810;23;20022;-92
2024/01/05 14:15:28;;;;;;;4.63;3.33;;;;;;;-0.90;100.00;99804.28;6105705;23;20028;-91
2024/01/05 14:17:59;;;;;;;4.13;3.30;;;;;;;-0.80;100.00;99798.34;6104412;23;20017;-93
2024/01/05 14:20:29;;;;;;;6.37;3.37;;;;;;;-0.79;100.00;99799.19;6154813;23;20052;-92
2024/01/05 14:22:56;;;;;;;4.77;3.27;;;;;;;-0.89;100.00;99793.91;6129688;23;20022;-91
